Cut Bank Municipal Airport Cut Bank US
ICAO: KCTB
IATA: CTB
Category: Medium
Scheduled Services: No

Elevation: 3854 ft
TransAlt. 18000 ft.

Airport Communications:
SALT LAKE CITY CNTR:133.4
ASOS:119.025
GREAT FALLS RDO:122.2
CTAF/UNICOM:122.8

KCTB Zoom In..

If you have problems with the map follow the link
https://www.worldairports.se/pages/airport.php?
ICAO=KCTB

Runways:

(A) RW 05 length 5302 ft width 75 ft
---- / hdg 47

(B) RW 13 length 5300 ft width 75 ft
---- / hdg 135

(C) RW 23 length 5302 ft width 75 ft
---- / hdg 227

(D) RW 31 length 5300 ft width 75 ft
---- / hdg 315

Location; KCTB
Day. 21 / Time. 06.56 Zulu
* Altimeter: 30.09
* Temperature: 03° c. 37.4°f.
* Wind from: 010° Speed 07 kn.
Dewpoint: -07° c.
Visibility: 10 Statute Miles.
Clouds: Clear (automated report).

KCTB 210656Z AUTO 01007KT 10SM CLR 03/M07 A3009 RMK AO2 SLP182 T00331072 402221011


Wind From 010°
Speed 07 kn.

 
 
jpsmedia.com for Web Design worldairports.se 2018   terms of use